Time;durP1;ratioP1;P1;durP2;ratioP2;P2;SDS_P1;SDS_P2;PMS_P1;PMS_P2;Temp;Humidity;BMP_temperature;BMP_pressure;BME280_temperature;BME280_humidity;BME280_pressure;Samples;Min_cycle;Max_cycle;Signal;HPM_P1;HPM_P2
2023/12/09 00:03:44;;;;;;;2.20;1.65;;;;;;;19.13;100.00;101030.03;10452219;28;20407;-80
2023/12/09 00:08:46;;;;;;;4.05;0.77;;;;;;;19.37;100.00;101028.94;10455993;28;20106;-80
2023/12/09 00:13:48;;;;;;;0.10;0.10;;;;;;;18.07;100.00;101030.56;10434166;28;20053;-80
2023/12/09 00:18:50;;;;;;;1.95;1.38;;;;;;;18.79;100.00;101030.25;10457766;28;20056;-80
2023/12/09 00:23:52;;;;;;;1.80;0.60;;;;;;;18.71;100.00;101031.16;10456086;28;20037;-80
2023/12/09 00:28:54;;;;;;;1.73;1.63;;;;;;;19.45;100.00;101021.06;10463739;28;20064;-80
2023/12/09 00:33:56;;;;;;;3.83;0.45;;;;;;;18.37;100.00;101023.47;10456759;28;20037;-80
2023/12/09 00:38:58;;;;;;;0.73;0.45;;;;;;;19.21;100.00;101017.78;10453815;28;20400;-80
2023/12/09 00:44:00;;;;;;;0.20;0.08;;;;;;;18.95;100.00;101011.00;10447501;28;20080;-80
2023/12/09 00:49:02;;;;;;;0.38;0.22;;;;;;;17.65;100.00;101024.56;10437193;28;20531;-79
2023/12/09 00:54:04;;;;;;;2.17;0.85;;;;;;;17.16;100.00;101021.97;10437203;28;20033;-80
2023/12/09 00:59:07;;;;;;;2.05;0.85;;;;;;;19.09;100.00;101012.66;10452695;28;20047;-80
2023/12/09 01:04:09;;;;;;;0.35;0.20;;;;;;;18.92;100.00;101020.59;10458808;28;20033;-80
2023/12/09 01:09:11;;;;;;;0.90;0.65;;;;;;;19.34;100.00;101022.00;10430152;28;20049;-81
2023/12/09 01:14:13;;;;;;;0.10;0.10;;;;;;;18.53;100.00;101033.84;10447144;28;20041;-80
2023/12/09 01:19:15;;;;;;;0.52;0.30;;;;;;;19.27;100.00;101025.56;10453618;28;20044;-80
2023/12/09 01:24:18;;;;;;;0.17;0.10;;;;;;;19.10;100.00;101030.06;10445315;28;20044;-80
2023/12/09 01:29:20;;;;;;;0.43;0.43;;;;;;;20.06;100.00;101030.03;10445993;28;20040;-80
2023/12/09 01:34:21;;;;;;;0.17;0.17;;;;;;;19.16;100.00;101030.00;10444737;28;20463;-80
2023/12/09 01:39:23;;;;;;;2.03;0.85;;;;;;;18.41;100.00;101023.47;10458647;28;20094;-80
2023/12/09 01:44:25;;;;;;;0.20;0.20;;;;;;;17.74;100.00;101029.75;10452012;28;20086;-80
2023/12/09 01:49:28;;;;;;;1.23;0.55;;;;;;;19.26;100.00;101029.03;10459371;28;20079;-80
2023/12/09 01:54:30;;;;;;;0.45;0.30;;;;;;;17.69;100.00;101028.00;10433333;28;20049;-80
2023/12/09 01:59:32;;;;;;;0.40;0.40;;;;;;;18.13;100.00;101018.41;10436613;28;20487;-80
2023/12/09 02:04:34;;;;;;;1.90;0.43;;;;;;;18.07;100.00;101030.56;10453740;28;20037;-80
2023/12/09 02:09:39;;;;;;;0.08;0.08;;;;;;;19.63;100.00;101015.66;10463961;28;20624;-80
2023/12/09 02:14:58;;;;;;;0.30;0.20;;;;;;;18.66;100.00;101022.47;10437298;28;20037;-80
2023/12/09 02:20:02;;;;;;;0.73;0.47;;;;;;;18.90;100.00;101002.31;10449315;28;20083;-80
2023/12/09 02:25:05;;;;;;;0.22;0.22;;;;;;;18.49;100.00;101006.06;10473817;28;20539;-80
2023/12/09 02:30:18;;;;;;;1.35;1.05;;;;;;;19.18;100.00;100982.13;10447655;28;20044;-80
2023/12/09 02:35:22;;;;;;;0.25;0.15;;;;;;;18.66;100.00;100988.53;10452213;28;20036;-80
2023/12/09 02:40:25;;;;;;;0.13;0.13;;;;;;;17.86;100.00;100981.94;10445957;28;20041;-80
2023/12/09 02:45:27;;;;;;;0.10;0.10;;;;;;;17.89;100.00;100978.47;10435173;28;20047;-80
2023/12/09 02:50:30;;;;;;;0.17;0.10;;;;;;;19.05;100.00;100969.16;10449712;28;20403;-81
2023/12/09 02:55:31;;;;;;;0.43;0.43;;;;;;;19.24;100.00;100982.94;10448712;28;20613;-81
2023/12/09 03:00:34;;;;;;;1.35;0.32;;;;;;;18.74;100.00;100974.56;10457096;28;20464;-80
2023/12/09 03:05:36;;;;;;;0.10;0.10;;;;;;;18.61;100.00;100979.88;10449474;28;20040;-80
2023/12/09 03:10:37;;;;;;;0.00;0.00;;;;;;;19.76;100.00;100971.97;10448546;28;20037;-81
2023/12/09 03:15:39;;;;;;;0.52;0.50;;;;;;;19.74;100.00;100957.19;10442223;28;20049;-81
2023/12/09 03:20:41;;;;;;;0.17;0.17;;;;;;;18.68;100.00;100952.03;10436535;28;20063;-80
2023/12/09 03:25:43;;;;;;;0.80;0.22;;;;;;;18.26;100.00;100946.16;10437883;28;20049;-80
2023/12/09 03:30:44;;;;;;;0.85;0.45;;;;;;;17.37;100.00;100930.84;10459353;28;20410;-80
2023/12/09 03:35:46;;;;;;;0.30;0.30;;;;;;;18.94;100.00;100922.25;10455411;28;20075;-81
2023/12/09 03:40:47;;;;;;;7.57;1.35;;;;;;;18.19;100.00;100925.34;10446125;28;20036;-81
2023/12/09 03:45:49;;;;;;;0.05;0.05;;;;;;;17.89;100.00;100915.91;10436726;28;20123;-81
2023/12/09 03:50:51;;;;;;;2.20;1.27;;;;;;;17.29;100.00;100930.81;10456605;28;20044;-80
2023/12/09 03:55:53;;;;;;;0.00;0.00;;;;;;;16.70;100.00;100935.16;10454839;28;20048;-80
2023/12/09 04:00:54;;;;;;;0.08;0.08;;;;;;;17.66;100.00;100937.72;10457235;28;20111;-81
2023/12/09 04:05:56;;;;;;;0.20;0.20;;;;;;;17.86;100.00;100926.34;10472332;28;20051;-80
2023/12/09 04:10:58;;;;;;;0.30;0.30;;;;;;;17.87;100.00;100922.88;10440272;28;20488;-80
2023/12/09 04:16:01;;;;;;;1.05;0.85;;;;;;;18.05;100.00;100922.84;10470558;28;20041;-80
2023/12/09 04:21:03;;;;;;;0.63;0.32;;;;;;;17.55;100.00;100922.09;10457322;28;20139;-80
2023/12/09 04:26:05;;;;;;;1.40;0.52;;;;;;;16.94;100.00;100907.47;10455472;28;20047;-81
2023/12/09 04:31:07;;;;;;;0.00;0.00;;;;;;;18.74;100.00;100911.94;10442150;28;20049;-80
2023/12/09 04:36:09;;;;;;;0.10;0.10;;;;;;;18.74;100.00;100907.59;10442315;28;20045;-80
2023/12/09 04:41:10;;;;;;;0.03;0.03;;;;;;;18.03;100.00;100897.63;10442287;28;20149;-80
2023/12/09 04:46:12;;;;;;;0.95;0.75;;;;;;;18.90;100.00;100886.59;10470910;28;20131;-81
2023/12/09 04:51:16;;;;;;;0.30;0.25;;;;;;;18.28;100.00;100867.03;10442084;28;20053;-80
2023/12/09 04:56:19;;;;;;;0.20;0.20;;;;;;;18.89;100.00;100880.50;10455182;28;20049;-81
2023/12/09 05:01:21;;;;;;;1.15;0.45;;;;;;;17.92;100.00;100864.63;10453691;28;20044;-80
2023/12/09 05:06:23;;;;;;;1.02;0.20;;;;;;;18.76;100.00;100868.44;10461780;28;20068;-80
2023/12/09 05:11:25;;;;;;;17.52;0.88;;;;;;;18.01;100.00;100879.38;10451577;28;20048;-80
2023/12/09 05:16:27;;;;;;;1.45;0.80;;;;;;;17.33;100.00;100869.19;10469789;28;20045;-80
2023/12/09 05:21:29;;;;;;;0.60;0.47;;;;;;;18.20;100.00;100863.66;10427887;28;20067;-80
2023/12/09 05:26:37;;;;;;;4.53;0.55;;;;;;;18.09;100.00;100861.13;10451862;28;20530;-80
2023/12/09 05:31:40;;;;;;;0.35;0.20;;;;;;;17.41;100.00;100857.03;10445944;28;20476;-80
2023/12/09 05:36:42;;;;;;;17.08;1.52;;;;;;;17.15;100.00;100856.25;10446045;28;20041;-80
2023/12/09 05:41:44;;;;;;;2.95;0.75;;;;;;;18.52;100.00;100845.16;10445732;28;20048;-81
2023/12/09 05:46:47;;;;;;;0.10;0.10;;;;;;;18.20;100.00;100841.03;10437508;28;20069;-80
2023/12/09 05:51:49;;;;;;;0.70;0.30;;;;;;;17.89;100.00;100848.16;10441801;28;20048;-80
2023/12/09 05:56:51;;;;;;;1.00;0.90;;;;;;;18.54;100.00;100842.53;10435159;28;20045;-80
2023/12/09 06:01:54;;;;;;;0.28;0.28;;;;;;;19.38;100.00;100833.91;10462930;28;20028;-81
2023/12/09 06:06:56;;;;;;;0.98;0.13;;;;;;;18.69;100.00;100837.19;10437487;28;20041;-81
2023/12/09 06:11:58;;;;;;;1.65;0.80;;;;;;;18.91;100.00;100831.75;10453557;28;20051;-80
2023/12/09 06:17:00;;;;;;;0.22;0.20;;;;;;;19.13;100.00;100818.50;10461586;28;20048;-79
2023/12/09 06:22:02;;;;;;;0.00;0.00;;;;;;;17.55;100.00;100817.91;10458201;28;20553;-80
2023/12/09 06:27:04;;;;;;;0.00;0.00;;;;;;;18.08;100.00;100802.88;10445444;28;20060;-79
2023/12/09 06:32:06;;;;;;;0.90;0.70;;;;;;;18.04;100.00;100805.50;10448301;28;20041;-80
2023/12/09 06:37:07;;;;;;;0.10;0.10;;;;;;;17.59;100.00;100795.31;10435952;28;20051;-80
2023/12/09 06:42:09;;;;;;;1.15;0.50;;;;;;;18.71;100.00;100791.06;10437013;28;20697;-80
2023/12/09 06:47:11;;;;;;;0.65;0.65;;;;;;;18.04;100.00;100782.94;10454217;28;20056;-80
2023/12/09 06:52:13;;;;;;;0.05;0.05;;;;;;;17.80;100.00;100785.66;10465522;28;20556;-81
2023/12/09 06:57:14;;;;;;;1.38;0.75;;;;;;;17.37;100.00;100782.41;10455222;28;20147;-80
2023/12/09 07:02:16;;;;;;;0.10;0.10;;;;;;;18.25;100.00;100778.44;10470113;28;20041;-80
2023/12/09 07:07:18;;;;;;;0.08;0.08;;;;;;;17.82;100.00;100770.88;10473193;28;20048;-80
2023/12/09 07:12:23;;;;;;;0.00;0.00;;;;;;;18.07;100.00;100769.00;10453440;28;20040;-80
2023/12/09 07:17:25;;;;;;;0.00;0.00;;;;;;;17.49;100.00;100746.75;10449647;28;20073;-79
2023/12/09 07:22:27;;;;;;;0.13;0.13;;;;;;;18.22;100.00;100731.50;10454844;28;20158;-79
2023/12/09 07:27:29;;;;;;;0.00;0.00;;;;;;;18.77;100.00;100718.81;10455944;28;20049;-79
2023/12/09 07:32:32;;;;;;;0.32;0.20;;;;;;;17.79;100.00;100721.38;10431550;28;20414;-80
2023/12/09 07:37:34;;;;;;;0.32;0.20;;;;;;;18.32;100.00;100712.31;10435701;28;20056;-79
2023/12/09 07:42:35;;;;;;;0.40;0.40;;;;;;;18.61;100.00;100690.28;10447292;28;20167;-80
2023/12/09 07:47:37;;;;;;;0.43;0.15;;;;;;;17.97;100.00;100690.03;10444360;28;20057;-80
2023/12/09 07:52:39;;;;;;;0.03;0.03;;;;;;;17.94;100.00;100679.56;10447717;28;20045;-80
2023/12/09 07:57:41;;;;;;;1.08;0.30;;;;;;;18.61;100.00;100684.19;10442629;28;20168;-80
2023/12/09 08:02:43;;;;;;;0.00;0.00;;;;;;;17.28;100.00;100686.09;10450444;28;20045;-82
2023/12/09 08:07:45;;;;;;;0.00;0.00;;;;;;;18.84;100.00;100670.88;10449805;28;20169;-80
2023/12/09 08:12:46;;;;;;;0.00;0.00;;;;;;;17.72;100.00;100673.69;10463882;28;20499;-80
2023/12/09 08:17:48;;;;;;;0.00;0.00;;;;;;;18.30;100.00;100661.91;10428585;28;20049;-80
2023/12/09 08:22:50;;;;;;;3.65;1.08;;;;;;;17.28;100.00;100663.50;10453490;28;20127;-80
2023/12/09 08:27:52;;;;;;;0.00;0.00;;;;;;;18.86;100.00;100653.47;10453681;28;20147;-81
2023/12/09 08:32:54;;;;;;;0.00;0.00;;;;;;;17.33;100.00;100645.28;10448301;28;20443;-80
2023/12/09 08:37:56;;;;;;;0.82;0.30;;;;;;;18.79;100.00;100641.38;10437060;28;20087;-80
2023/12/09 08:42:58;;;;;;;0.73;0.32;;;;;;;19.06;100.00;100628.88;10434018;28;20037;-80
2023/12/09 08:48:00;;;;;;;0.00;0.00;;;;;;;18.84;100.00;100636.94;10426870;28;20049;-80
2023/12/09 08:53:02;;;;;;;0.52;0.47;;;;;;;18.39;100.00;100643.56;10395117;28;20055;-80
2023/12/09 08:58:04;;;;;;;1.08;0.75;;;;;;;18.56;100.00;100626.84;10425521;28;20108;-80
2023/12/09 09:03:06;;;;;;;0.65;0.10;;;;;;;18.44;100.00;100600.88;10445127;28;20135;-80
2023/12/09 09:08:08;;;;;;;0.20;0.20;;;;;;;18.72;100.00;100601.44;10450433;28;20383;-80
2023/12/09 09:13:10;;;;;;;1.05;0.45;;;;;;;18.69;100.00;100581.47;10456838;28;20051;-80
2023/12/09 09:18:13;;;;;;;0.20;0.20;;;;;;;18.32;100.00;100581.03;10465760;28;20047;-80
2023/12/09 09:23:16;;;;;;;0.40;0.30;;;;;;;18.69;100.00;100568.41;10451231;28;20141;-80
2023/12/09 09:28:17;;;;;;;0.00;0.00;;;;;;;18.92;100.00;100567.28;10440785;28;20057;-80
2023/12/09 09:33:19;;;;;;;1.10;0.73;;;;;;;18.21;100.00;100552.47;10452268;28;20037;-80
2023/12/09 09:38:22;;;;;;;0.10;0.10;;;;;;;18.71;100.00;100551.00;10445934;28;20055;-81
2023/12/09 09:43:30;;;;;;;0.90;0.60;;;;;;;18.77;100.00;100541.34;10433620;28;20044;-80
2023/12/09 09:48:37;;;;;;;0.30;0.30;;;;;;;18.55;100.00;100526.00;10432009;28;20044;-80
2023/12/09 09:53:58;;;;;;;0.65;0.35;;;;;;;19.03;100.00;100499.25;10428144;28;20131;-80
2023/12/09 09:58:59;;;;;;;0.10;0.10;;;;;;;17.66;100.00;100492.22;10437552;28;20045;-81
2023/12/09 10:04:01;;;;;;;0.80;0.43;;;;;;;19.94;100.00;100487.22;10424835;28;20095;-80
2023/12/09 10:09:04;;;;;;;0.00;0.00;;;;;;;18.93;100.00;100454.16;10455063;28;20041;-81
2023/12/09 10:14:05;;;;;;;0.00;0.00;;;;;;;18.28;100.00;100462.84;10427946;28;20743;-81
2023/12/09 10:19:09;;;;;;;0.80;0.65;;;;;;;19.92;100.00;100434.09;10437117;28;20681;-80
2023/12/09 10:24:11;;;;;;;0.00;0.00;;;;;;;19.52;100.00;100427.03;10442737;28;20045;-80
2023/12/09 10:29:12;;;;;;;3.72;0.60;;;;;;;19.74;100.00;100400.47;10444314;28;20513;-80
2023/12/09 10:34:14;;;;;;;0.45;0.40;;;;;;;20.92;100.00;100383.06;10450489;28;20391;-79
2023/12/09 10:39:19;;;;;;;0.35;0.35;;;;;;;20.36;100.00;100379.09;10452448;28;20056;-80
2023/12/09 10:44:21;;;;;;;0.30;0.30;;;;;;;19.94;100.00;100363.50;10465020;28;20044;-80
2023/12/09 10:49:22;;;;;;;0.28;0.28;;;;;;;19.18;100.00;100350.16;10461208;28;20404;-80
2023/12/09 10:54:24;;;;;;;1.33;0.30;;;;;;;20.14;100.00;100331.69;10446478;28;20398;-80
2023/12/09 10:59:29;;;;;;;0.10;0.10;;;;;;;19.54;100.00;100315.50;10448187;28;20059;-79
2023/12/09 11:04:32;;;;;;;0.75;0.55;;;;;;;19.74;100.00;100306.38;10458233;28;20051;-80
2023/12/09 11:09:36;;;;;;;16.25;0.43;;;;;;;21.02;100.00;100290.25;10450550;28;20049;-80
2023/12/09 11:14:38;;;;;;;0.00;0.00;;;;;;;19.77;100.00;100282.81;10433871;28;20059;-80
2023/12/09 11:19:40;;;;;;;0.00;0.00;;;;;;;20.04;100.00;100256.94;10439771;28;20072;-80
2023/12/09 11:24:46;;;;;;;2.85;1.92;;;;;;;20.20;100.00;100241.72;10447203;28;20062;-80
2023/12/09 11:29:48;;;;;;;5.45;0.40;;;;;;;19.02;100.00;100207.75;10441726;28;20040;-80
2023/12/09 11:34:51;;;;;;;0.68;0.50;;;;;;;20.87;100.00;100186.81;10435466;28;20072;-80
2023/12/09 11:39:57;;;;;;;0.65;0.40;;;;;;;20.49;100.00;100172.97;10449037;28;20491;-80
2023/12/09 11:45:02;;;;;;;1.05;0.85;;;;;;;20.45;100.00;100159.13;10441110;28;20041;-80
2023/12/09 11:50:06;;;;;;;0.10;0.10;;;;;;;19.87;100.00;100161.47;10445494;28;20583;-81
2023/12/09 11:55:10;;;;;;;0.00;0.00;;;;;;;19.36;100.00;100144.34;10437916;28;20037;-80
2023/12/09 12:00:13;;;;;;;0.20;0.20;;;;;;;19.77;100.00;100108.53;10445527;28;20059;-81
2023/12/09 12:05:15;;;;;;;1.65;0.88;;;;;;;19.68;100.00;100082.63;10450671;28;20056;-80
2023/12/09 12:10:17;;;;;;;4.50;0.65;;;;;;;20.32;100.00;100065.31;10444906;28;20086;-80
2023/12/09 12:15:19;;;;;;;0.30;0.30;;;;;;;20.85;100.00;100062.94;10434824;28;20071;-80
2023/12/09 12:20:21;;;;;;;0.25;0.17;;;;;;;20.13;100.00;100053.59;10443398;28;20044;-80
2023/12/09 12:25:26;;;;;;;17.90;3.53;;;;;;;19.60;100.00;100027.97;10456282;28;20072;-80
2023/12/09 12:30:27;;;;;;;1.25;0.98;;;;;;;20.82;100.00;100009.81;10472479;28;20039;-80
2023/12/09 12:35:29;;;;;;;0.63;0.63;;;;;;;20.36;100.00;99980.66;10452893;28;20048;-82
2023/12/09 12:40:31;;;;;;;1.00;0.38;;;;;;;20.04;100.00;99954.50;10460843;28;20056;-81
2023/12/09 12:45:36;;;;;;;0.08;0.08;;;;;;;19.79;100.00;99938.63;10452902;28;20509;-81
2023/12/09 12:50:38;;;;;;;0.10;0.10;;;;;;;19.72;100.00;99921.41;10434592;28;20056;-82
2023/12/09 12:55:40;;;;;;;0.10;0.10;;;;;;;19.24;100.00;99905.28;10428343;28;20503;-82
2023/12/09 13:00:42;;;;;;;0.10;0.05;;;;;;;19.99;100.00;99875.34;10429741;28;20072;-81
2023/12/09 13:05:44;;;;;;;1.58;0.32;;;;;;;20.23;100.00;99849.38;10431194;28;20037;-82
2023/12/09 13:10:46;;;;;;;0.38;0.28;;;;;;;20.27;100.00;99833.53;10441872;28;20068;-82
2023/12/09 13:15:48;;;;;;;0.05;0.05;;;;;;;20.53;100.00;99820.53;10450125;28;20169;-82
2023/12/09 13:20:52;;;;;;;0.32;0.32;;;;;;;20.21;100.00;99794.53;10450486;28;20457;-82
2023/12/09 13:25:53;;;;;;;0.35;0.28;;;;;;;20.41;100.00;99785.16;10446206;28;20029;-81
2023/12/09 13:30:55;;;;;;;1.45;0.57;;;;;;;21.12;100.00;99760.97;10434144;28;20043;-82
2023/12/09 13:35:57;;;;;;;2.28;1.58;;;;;;;21.41;100.00;99749.41;10445753;28;20090;-81
2023/12/09 13:40:59;;;;;;;1.45;1.35;;;;;;;20.55;100.00;99714.91;10449248;28;20036;-81
2023/12/09 13:46:00;;;;;;;1.27;1.05;;;;;;;19.29;100.00;99704.94;10454799;28;20041;-81
2023/12/09 13:51:04;;;;;;;0.20;0.20;;;;;;;19.97;100.00;99687.19;10457399;28;20045;-82
2023/12/09 13:56:07;;;;;;;0.45;0.45;;;;;;;20.61;100.00;99667.59;10433130;28;20552;-81
2023/12/09 14:01:09;;;;;;;0.30;0.20;;;;;;;19.96;100.00;99659.34;10448916;28;20048;-82
2023/12/09 14:06:11;;;;;;;0.57;0.57;;;;;;;20.14;100.00;99646.56;10448841;28;20043;-82
2023/12/09 14:11:14;;;;;;;0.35;0.10;;;;;;;19.34;100.00;99622.06;10457309;28;20135;-84
2023/12/09 14:16:16;;;;;;;0.25;0.15;;;;;;;19.99;100.00;99600.03;10442458;28;20570;-82
2023/12/09 14:21:18;;;;;;;0.10;0.05;;;;;;;19.08;100.00;99580.25;10441672;28;20057;-83
2023/12/09 14:26:20;;;;;;;3.53;1.20;;;;;;;19.07;100.00;99571.56;10450427;28;20068;-81
2023/12/09 14:31:22;;;;;;;0.30;0.10;;;;;;;20.28;100.00;99550.19;10446700;28;20132;-84
2023/12/09 14:36:24;;;;;;;1.13;0.80;;;;;;;19.71;100.00;99538.19;10453013;28;20132;-83
2023/12/09 14:41:26;;;;;;;0.00;0.00;;;;;;;19.26;100.00;99517.00;10463834;28;20122;-84
2023/12/09 14:46:28;;;;;;;0.00;0.00;;;;;;;19.98;100.00;99494.59;10461047;28;20131;-87
2023/12/09 14:51:30;;;;;;;0.00;0.00;;;;;;;20.07;100.00;99462.03;10453596;28;20087;-86
2023/12/09 14:56:44;;;;;;;0.00;0.00;;;;;;;19.25;100.00;99447.41;10441517;28;20033;-84
2023/12/09 15:01:46;;;;;;;1.13;0.55;;;;;;;18.79;100.00;99444.50;10452748;28;20045;-85
2023/12/09 15:06:50;;;;;;;0.00;0.00;;;;;;;18.85;100.00;99427.81;10440189;28;20047;-84
2023/12/09 15:11:52;;;;;;;0.20;0.10;;;;;;;18.48;100.00;99397.69;10458931;28;20040;-84
2023/12/09 15:16:54;;;;;;;0.00;0.00;;;;;;;18.82;100.00;99360.06;10450695;28;20049;-84
2023/12/09 15:21:56;;;;;;;0.15;0.10;;;;;;;18.68;100.00;99348.34;10445829;28;20136;-83
2023/12/09 15:26:58;;;;;;;0.05;0.05;;;;;;;18.66;100.00;99334.47;10459745;28;20046;-82
2023/12/09 15:32:00;;;;;;;0.08;0.05;;;;;;;18.13;100.00;99314.44;10441406;28;20458;-82
2023/12/09 15:37:03;;;;;;;0.00;0.00;;;;;;;17.94;100.00;99298.47;10455812;28;20044;-81
2023/12/09 15:42:06;;;;;;;0.22;0.20;;;;;;;18.89;100.00;99290.28;10435340;28;20048;-82
2023/12/09 15:47:11;;;;;;;0.00;0.00;;;;;;;18.91;100.00;99273.66;10437097;28;20045;-84
2023/12/09 15:52:15;;;;;;;0.00;0.00;;;;;;;17.71;100.00;99266.16;10446104;28;20037;-81
2023/12/09 15:57:17;;;;;;;0.98;0.68;;;;;;;18.92;100.00;99262.34;10423146;28;20045;-82
2023/12/09 16:02:22;;;;;;;0.03;0.00;;;;;;;18.53;100.00;99278.41;10427867;28;20045;-81
2023/12/09 16:07:25;;;;;;;0.95;0.40;;;;;;;19.71;100.00;99266.47;10449629;28;20045;-82
2023/12/09 16:12:26;;;;;;;0.00;0.00;;;;;;;19.60;100.00;99248.59;10423439;28;20136;-82
2023/12/09 16:17:29;;;;;;;0.00;0.00;;;;;;;17.76;100.00;99234.75;10451563;28;20131;-82
2023/12/09 16:22:31;;;;;;;0.40;0.40;;;;;;;18.88;100.00;99224.19;10442550;28;20049;-81
2023/12/09 16:27:34;;;;;;;0.10;0.10;;;;;;;19.31;100.00;99217.47;10439346;28;20072;-82
2023/12/09 16:32:36;;;;;;;0.05;0.05;;;;;;;18.83;100.00;99216.53;10427218;28;20784;-81
2023/12/09 16:37:40;;;;;;;0.43;0.20;;;;;;;18.08;100.00;99199.91;10418189;28;20045;-81
2023/12/09 16:42:42;;;;;;;0.00;0.00;;;;;;;18.44;100.00;99192.66;10440647;28;20075;-81
2023/12/09 16:47:44;;;;;;;0.05;0.05;;;;;;;19.10;100.00;99195.59;10443259;28;20131;-81
2023/12/09 16:52:46;;;;;;;0.00;0.00;;;;;;;19.53;100.00;99200.09;10446471;28;20045;-81
2023/12/09 16:57:48;;;;;;;0.22;0.17;;;;;;;18.38;100.00;99184.16;10430382;28;20064;-82
2023/12/09 17:02:50;;;;;;;1.05;0.63;;;;;;;19.31;100.00;99188.75;10440002;28;20070;-82
2023/12/09 17:07:52;;;;;;;0.00;0.00;;;;;;;19.74;100.00;99156.63;10440227;28;20040;-81
2023/12/09 17:12:53;;;;;;;0.28;0.08;;;;;;;18.58;100.00;99159.13;10442355;28;20298;-82
2023/12/09 17:17:57;;;;;;;0.10;0.10;;;;;;;18.86;100.00;99153.78;10441925;28;20051;-83
2023/12/09 17:22:59;;;;;;;0.10;0.10;;;;;;;19.53;100.00;99147.88;10430272;28;20052;-82
2023/12/09 17:28:01;;;;;;;0.00;0.00;;;;;;;18.33;100.00;99133.94;10451432;28;20047;-81
2023/12/09 17:33:04;;;;;;;0.03;0.03;;;;;;;18.59;100.00;99158.25;10426674;28;20118;-80
2023/12/09 17:38:07;;;;;;;0.00;0.00;;;;;;;19.28;100.00;99143.63;10422271;28;20128;-80
2023/12/09 17:43:09;;;;;;;0.80;0.35;;;;;;;19.01;100.00;99121.13;10451897;28;20037;-82
2023/12/09 17:48:10;;;;;;;0.20;0.20;;;;;;;16.53;100.00;99135.03;10453029;28;20049;-82
2023/12/09 17:53:16;;;;;;;0.10;0.10;;;;;;;18.29;100.00;99106.25;10439717;28;20140;-82
2023/12/09 17:58:18;;;;;;;0.10;0.10;;;;;;;18.66;100.00;99091.91;10437674;28;20053;-82
2023/12/09 18:03:20;;;;;;;0.00;0.00;;;;;;;18.19;100.00;99104.88;10437836;28;20057;-82
2023/12/09 18:08:22;;;;;;;0.00;0.00;;;;;;;18.77;100.00;99075.03;10437086;28;20107;-82
2023/12/09 18:13:24;;;;;;;0.00;0.00;;;;;;;17.88;100.00;99074.63;10435227;28;20053;-82
2023/12/09 18:18:26;;;;;;;0.65;0.20;;;;;;;17.74;100.00;99088.97;10440466;28;20135;-82
2023/12/09 18:23:28;;;;;;;0.13;0.13;;;;;;;21.61;100.00;99022.78;10455067;28;20094;-82
2023/12/09 18:28:30;;;;;;;0.15;0.10;;;;;;;18.96;100.00;99083.03;10435047;28;20053;-81
2023/12/09 18:33:35;;;;;;;0.22;0.10;;;;;;;19.38;100.00;99076.22;10433292;28;20131;-81
2023/12/09 18:38:37;;;;;;;0.17;0.10;;;;;;;20.29;100.00;99072.47;10441172;28;20385;-81
2023/12/09 18:43:40;;;;;;;0.15;0.15;;;;;;;22.17;100.00;99060.16;10441901;28;20438;-82
2023/12/09 18:48:41;;;;;;;0.10;0.10;;;;;;;22.82;100.00;99083.00;10429783;28;20430;-82
2023/12/09 18:53:43;;;;;;;0.00;0.00;;;;;;;21.80;100.00;99080.38;10416164;28;20041;-82
2023/12/09 18:58:45;;;;;;;0.28;0.20;;;;;;;20.22;100.00;99079.72;10432798;28;20065;-81
2023/12/09 19:03:47;;;;;;;0.00;0.00;;;;;;;20.87;100.00;99076.91;10435708;28;20047;-82
2023/12/09 19:08:49;;;;;;;0.75;0.32;;;;;;;22.18;100.00;99087.25;10419863;28;20055;-82
2023/12/09 19:13:51;;;;;;;0.20;0.20;;;;;;;21.49;100.00;99089.72;10424119;28;20124;-82
2023/12/09 19:18:52;;;;;;;1.40;0.35;;;;;;;20.25;100.00;99110.16;10420752;28;20476;-81
2023/12/09 19:23:54;;;;;;;0.70;0.63;;;;;;;21.18;100.00;99120.00;10435618;28;20090;-80
2023/12/09 19:28:56;;;;;;;0.00;0.00;;;;;;;22.01;100.00;99106.44;10435765;28;20045;-81
2023/12/09 19:34:01;;;;;;;0.40;0.40;;;;;;;22.85;100.00;99133.66;10435915;28;20037;-82
2023/12/09 19:39:03;;;;;;;0.55;0.30;;;;;;;21.58;100.00;99140.88;10435169;28;20041;-82
2023/12/09 19:44:05;;;;;;;0.03;0.03;;;;;;;22.30;100.00;99159.22;10419886;28;20041;-81
2023/12/09 19:49:08;;;;;;;0.43;0.43;;;;;;;24.10;100.00;99173.25;10449047;28;20116;-81
2023/12/09 19:54:10;;;;;;;1.17;0.35;;;;;;;22.91;100.00;99185.84;10444321;28;20131;-81
2023/12/09 19:59:12;;;;;;;0.32;0.32;;;;;;;22.86;100.00;99203.63;10436668;28;20139;-81
2023/12/09 20:04:14;;;;;;;0.25;0.25;;;;;;;23.49;100.00;99212.59;10460276;28;20064;-81
2023/12/09 20:09:16;;;;;;;0.73;0.65;;;;;;;23.61;100.00;99219.81;10433565;28;20056;-81
2023/12/09 20:14:17;;;;;;;3.45;0.85;;;;;;;23.96;100.00;99234.56;10436994;28;20045;-81
2023/12/09 20:19:19;;;;;;;0.22;0.17;;;;;;;22.06;100.00;99256.53;10440945;28;20069;-81
2023/12/09 20:24:26;;;;;;;1.27;0.43;;;;;;;22.96;100.00;99262.63;10440442;28;20037;-81
2023/12/09 20:29:28;;;;;;;1.27;0.75;;;;;;;23.04;100.00;99285.84;10460655;28;20047;-80
2023/12/09 20:34:30;;;;;;;1.20;0.32;;;;;;;22.90;100.00;99302.31;10429766;28;20491;-80
2023/12/09 20:39:32;;;;;;;0.70;0.43;;;;;;;22.70;100.00;99313.84;10434417;28;20053;-80
2023/12/09 20:44:34;;;;;;;0.00;0.00;;;;;;;24.13;100.00;99323.06;10460617;28;20076;-80
2023/12/09 20:49:36;;;;;;;0.20;0.20;;;;;;;23.04;100.00;99338.38;10441455;28;20080;-80
2023/12/09 20:54:41;;;;;;;0.35;0.28;;;;;;;22.49;100.00;99348.94;10445219;28;20056;-80
2023/12/09 20:59:48;;;;;;;1.10;0.23;;;;;;;23.03;100.00;99348.06;10434400;28;20053;-80
2023/12/09 21:04:49;;;;;;;0.50;0.28;;;;;;;22.12;100.00;99363.78;10432641;28;20044;-82
2023/12/09 21:09:51;;;;;;;0.95;0.47;;;;;;;22.52;100.00;99379.41;10432753;28;20048;-80
2023/12/09 21:14:53;;;;;;;0.95;0.38;;;;;;;22.27;100.00;99384.97;10446746;28;20048;-80
2023/12/09 21:19:55;;;;;;;11.77;2.85;;;;;;;22.03;100.00;99393.91;10440364;28;20077;-80
2023/12/09 21:24:57;;;;;;;7.22;0.65;;;;;;;22.31;100.00;99397.00;10439968;28;20064;-81
2023/12/09 21:30:00;;;;;;;0.05;0.00;;;;;;;21.86;100.00;99402.50;10443188;28;20059;-81
2023/12/09 21:35:02;;;;;;;10.57;1.05;;;;;;;22.49;100.00;99422.41;10444336;28;20508;-81
2023/12/09 21:40:06;;;;;;;7.10;0.13;;;;;;;23.20;100.00;99433.91;10434639;28;20124;-80
2023/12/09 21:45:08;;;;;;;3.50;1.23;;;;;;;22.62;100.00;99435.81;10450756;28;20033;-80
2023/12/09 21:50:12;;;;;;;0.00;0.00;;;;;;;22.98;100.00;99449.84;10448361;28;20553;-80
2023/12/09 21:55:14;;;;;;;1.65;0.30;;;;;;;23.19;100.00;99458.47;10453734;28;20450;-81
2023/12/09 22:00:16;;;;;;;0.00;0.00;;;;;;;22.34;100.00;99475.56;10449478;28;20059;-80
2023/12/09 22:05:18;;;;;;;2.10;0.70;;;;;;;22.64;100.00;99483.81;10435327;28;20057;-80
2023/12/09 22:10:20;;;;;;;0.17;0.10;;;;;;;23.88;100.00;99500.56;10443862;28;20044;-80
2023/12/09 22:15:21;;;;;;;1.38;0.30;;;;;;;24.04;100.00;99514.66;10453255;28;20130;-80
2023/12/09 22:20:23;;;;;;;1.23;0.32;;;;;;;25.38;98.52;99507.41;10455831;28;20098;-80
2023/12/09 22:25:25;;;;;;;1.88;1.30;;;;;;;23.69;100.00;99540.09;10430804;28;20049;-80
2023/12/09 22:30:27;;;;;;;2.38;0.90;;;;;;;25.93;92.97;99546.38;10453637;28;20045;-80
2023/12/09 22:35:31;;;;;;;0.55;0.55;;;;;;;26.43;93.88;99556.63;10448321;28;20045;-81
2023/12/09 22:40:33;;;;;;;1.45;0.85;;;;;;;26.20;94.59;99574.72;10448369;28;20095;-81
2023/12/09 22:45:38;;;;;;;0.80;0.28;;;;;;;26.41;92.25;99582.25;10430557;28;20041;-80
2023/12/09 22:50:40;;;;;;;0.20;0.20;;;;;;;24.89;92.36;99596.22;10455777;28;20059;-80
2023/12/09 22:55:42;;;;;;;0.38;0.20;;;;;;;26.02;90.39;99595.09;10425889;28;20072;-80
2023/12/09 23:00:45;;;;;;;0.75;0.60;;;;;;;25.30;90.69;99615.94;10437855;28;20052;-80